MSC Magnifica — 3FLO4 — position and weather

sailwx.info

Track history (hours):
 
Tides and Currents Weather Stations Pressure Air Temp Water Temp Dewpoint Dewpoint Depression Visibility Wind Speed Wind Dir Waves Ship Positions

MSC Magnifica

Last reported at 2018-Sep-24 21:30 UTC. Time now 2018-Sep-24 21:51 UTC.
Position N 50°34' W 000°52'.

Length 294 m; draft 7.9 m.

Type: Passenger vessel. MMSI: 352594000.

Date/timePositionNaut miles runAvg speedWind from/ knotsBaromVisibWave heightAir tempDewpointWater temp
2018-Sep-24 21:30N 50°34' W 000°52'613.9
2018-Sep-24 21:03N 50°39' W 000°56'113.8
2018-Sep-24 21:00N 50°40' W 000°56'510.7
2018-Sep-24 20:30N 50°44' W 001°03'818.4
2018-Sep-24 20:03N 50°46' W 001°15'120.3
2018-Sep-24 20:00N 50°46' W 001°17'5 9.8
2018-Sep-24 19:30N 50°51' W 001°20'4 9.0
2018-Sep-24 19:03N 50°54' W 001°25'0 5.6
2018-Sep-24 19:00N 50°54' W 001°25'0 0.3
2018-Sep-24 18:27N 50°54' W 001°25'0 0.0
2018-Sep-24 18:03N 50°54' W 001°25'0 0.0
2018-Sep-24 17:51N 50°54' W 001°25'0 0.0
2018-Sep-24 17:11N 50°54' W 001°25'0 0.0
2018-Sep-24 08:38N 50°54' W 001°25'0 0.0
2018-Sep-24 08:17N 50°54' W 001°25'0 0.0
2018-Sep-24 08:02N 50°54' W 001°25'0 0.0
2018-Sep-24 07:44N 50°54' W 001°25'0 0.0
2018-Sep-24 07:20N 50°54' W 001°25'0 0.0
2018-Sep-24 06:56N 50°54' W 001°25'0 0.0
2018-Sep-24 06:30N 50°54' W 001°25'2 5.5
2018-Sep-24 06:03N 50°52' W 001°23'114.4
2018-Sep-24 06:00N 50°52' W 001°22'510.5
2018-Sep-24 05:30N 50°47' W 001°19'716.6
2018-Sep-24 05:03N 50°45' W 001°07'119.3
2018-Sep-24 05:00N 50°45' W 001°06'917.7
2018-Sep-24 04:30N 50°40' W 000°55'2 4.4
2018-Sep-24 04:03N 50°38' W 000°53'0 6.0
2018-Sep-24 04:00N 50°38' W 000°52'4 8.8
2018-Sep-24 03:30N 50°38' W 000°45'511.5
2018-Sep-24 03:03N 50°36' W 000°38'111.4
2018-Sep-24 03:00N 50°36' W 000°37'611.8
2018-Sep-24 02:30N 50°35' W 000°28'2311.8
2018-Sep-24 00:34N 50°32' E 000°08'412.8
2018-Sep-24 00:16N 50°33' E 000°14'313.0
2018-Sep-24 00:03N 50°34' E 000°18'112.8
2018-Sep-24 00:00N 50°34' E 000°19'612.7
2018-Sep-23 23:30N 50°36' E 000°29'613.1
2018-Sep-23 23:03N 50°38' E 000°37'113.2
2018-Sep-23 23:00N 50°38' E 000°38'713.2
2018-Sep-23 22:31N 50°42' E 000°47'613.4
2018-Sep-23 22:04N 50°45' E 000°54'113.1
2018-Sep-23 22:00N 50°46' E 000°55'713.1
2018-Sep-23 21:30N 50°49' E 001°04'612.9
2018-Sep-23 21:03N 50°54' E 001°10'112.9
2018-Sep-23 21:00N 50°54' E 001°11'612.9
2018-Sep-23 20:30N 50°59' E 001°18'612.6
2018-Sep-23 20:03N 51°03' E 001°24'113.4
2018-Sep-23 20:00N 51°03' E 001°25'713.6
2018-Sep-23 19:31N 51°07' E 001°34'614.3
2018-Sep-23 19:04N 51°11' E 001°42'114.8
2018-Sep-23 19:01N 51°12' E 001°42'816.1
2018-Sep-23 18:31N 51°18' E 001°50'715.9
2018-Sep-23 18:04N 51°25' E 001°55'115.8
2018-Sep-23 18:00N 51°25' E 001°56'815.4
2018-Sep-23 17:30N 51°31' E 002°04'714.9
2018-Sep-23 17:03N 51°36' E 002°11'114.9
2018-Sep-23 17:00N 51°37' E 002°12'814.5
2018-Sep-23 16:29N 51°42' E 002°21'614.0
2018-Sep-23 16:03N 51°47' E 002°27'114.2
2018-Sep-23 15:59N 51°48' E 002°28'3414.9
2018-Sep-23 13:43N 52°14' E 003°03'416.6
2018-Sep-23 13:29N 52°17' E 003°06'716.7
2018-Sep-23 13:03N 52°23' E 003°13'117.1
2018-Sep-23 13:00N 52°24' E 003°14'917.1
2018-Sep-23 12:29N 52°31' E 003°22'817.5
2018-Sep-23 12:02N 52°37' E 003°31'117.9
2018-Sep-23 11:59N 52°37' E 003°32'1018.1
2018-Sep-23 11:28N 52°45' E 003°41'2218.6
2018-Sep-23 10:16N 53°01' E 004°06'518.8
2018-Sep-23 10:01N 53°04' E 004°12'118.8
2018-Sep-23 09:57N 53°05' E 004°14'818.9
2018-Sep-23 09:30N 53°11' E 004°24'818.8
2018-Sep-23 09:03N 53°18' E 004°31'119.0
2018-Sep-23 09:00N 53°19' E 004°32'918.4
2018-Sep-23 08:30N 53°27' E 004°38'818.2
2018-Sep-23 08:03N 53°32' E 004°50'117.9
2018-Sep-23 08:00N 53°32' E 004°51'917.5
2018-Sep-23 07:30N 53°36' E 005°05'817.0
2018-Sep-23 07:03N 53°38' E 005°17'116.8
2018-Sep-23 07:00N 53°39' E 005°18'816.7
2018-Sep-23 06:30N 53°41' E 005°31'816.5
2018-Sep-23 06:03N 53°43' E 005°44'116.5
2018-Sep-23 06:00N 53°43' E 005°45'816.6
2018-Sep-23 05:30N 53°46' E 005°59'716.7
2018-Sep-23 05:03N 53°48' E 006°11'116.9
2018-Sep-23 04:59N 53°48' E 006°12'817.0
2018-Sep-23 04:30N 53°51' E 006°26'1017.6
2018-Sep-23 03:55N 53°54' E 006°43'5218.2
2018-Sep-23 01:04N 54°00' E 008°10'118.5
2018-Sep-23 01:00N 54°00' E 008°12'815.8
2018-Sep-23 00:30N 53°59' E 008°25'817.9
2018-Sep-23 00:03N 53°57' E 008°39'117.3
2018-Sep-23 00:00N 53°56' E 008°39'714.5
2018-Sep-22 23:30N 53°51' E 008°47'613.0
2018-Sep-22 23:04N 53°51' E 008°57'114.4
2018-Sep-22 23:00N 53°51' E 008°58'611.8
2018-Sep-22 22:31N 53°53' E 009°08'510.6
2018-Sep-22 22:03N 53°52' E 009°16'111.8
2018-Sep-22 22:00N 53°52' E 009°17'611.2
2018-Sep-22 21:30N 53°48' E 009°23'511.1
2018-Sep-22 21:04N 53°44' E 009°27'111.0
2018-Sep-22 21:00N 53°43' E 009°28'612.1
2018-Sep-22 20:30N 53°38' E 009°32'613.7
2018-Sep-22 20:03N 53°34' E 009°40'112.6
2018-Sep-22 20:00N 53°34' E 009°41'612.4
2018-Sep-22 19:31N 53°33' E 009°52'3 6.9
2018-Sep-22 19:04N 53°33' E 009°57'0 1.9
2018-Sep-22 19:01N 53°32' E 009°57'0 0.5
2018-Sep-22 18:28N 53°33' E 009°56'0 0.0
2018-Sep-22 18:01N 53°33' E 009°56'0 0.0
2018-Sep-22 17:58N 53°33' E 009°56'0 0.0
2018-Sep-22 17:28N 53°33' E 009°56'0 0.0
2018-Sep-22 17:01N 53°33' E 009°56'0 0.0
2018-Sep-22 16:58N 53°33' E 009°56'0 0.0
2018-Sep-22 16:28N 53°33' E 009°56'0 0.0
2018-Sep-22 16:03N 53°33' E 009°56'0 0.0
2018-Sep-22 16:00N 53°33' E 009°56'0 0.0
2018-Sep-22 15:30N 53°33' E 009°56'0 0.0
2018-Sep-22 15:02N 53°33' E 009°56'0 0.0
2018-Sep-22 14:59N 53°33' E 009°56'0 0.0
2018-Sep-22 14:29N 53°33' E 009°56'0 0.0
2018-Sep-22 13:59N 53°33' E 009°56'0 0.0
2018-Sep-22 13:29N 53°33' E 009°56'0 0.0
2018-Sep-22 13:02N 53°33' E 009°56'0 0.0
2018-Sep-22 12:59N 53°33' E 009°56'0 0.0
2018-Sep-22 12:29N 53°33' E 009°56'0 0.0
2018-Sep-22 12:02N 53°33' E 009°56'0 0.0
2018-Sep-22 11:59N 53°33' E 009°56'0 0.0
2018-Sep-22 11:29N 53°33' E 009°56'0 0.0
2018-Sep-22 11:02N 53°33' E 009°56'0 0.0
2018-Sep-22 10:59N 53°33' E 009°56'0 0.0
2018-Sep-22 10:28N 53°33' E 009°56'0 0.0
2018-Sep-22 10:04N 53°33' E 009°56'0 0.0
2018-Sep-22 09:57N 53°33' E 009°56'0 0.0
2018-Sep-22 09:28N 53°33' E 009°56'0 0.0
2018-Sep-22 09:01N 53°33' E 009°56'0 0.0
2018-Sep-22 08:58N 53°33' E 009°56'0 0.0
2018-Sep-22 08:25N 53°33' E 009°56'0 0.0
2018-Sep-22 08:01N 53°33' E 009°56'0 0.0
2018-Sep-22 07:58N 53°33' E 009°56'0 0.0
2018-Sep-22 07:28N 53°33' E 009°56'0 0.0
2018-Sep-22 07:01N 53°33' E 009°56'0 0.0
2018-Sep-22 06:58N 53°33' E 009°56'0 0.0
2018-Sep-22 06:30N 53°33' E 009°56'0 0.0
2018-Sep-22 06:02N 53°33' E 009°56'0 0.0
2018-Sep-22 05:59N 53°33' E 009°56'0 0.0
2018-Sep-22 05:29N 53°33' E 009°56'0 0.0
2018-Sep-22 05:02N 53°33' E 009°56'0 0.0
2018-Sep-22 04:59N 53°33' E 009°56'0 0.0
2018-Sep-22 04:29N 53°33' E 009°56'0 1.1
2018-Sep-22 04:03N 53°33' E 009°56'0 7.5
2018-Sep-22 04:00N 53°33' E 009°55'4 7.9
2018-Sep-22 03:30N 53°33' E 009°48'511.0
2018-Sep-22 03:03N 53°34' E 009°40'111.4
2018-Sep-22 03:00N 53°34' E 009°39'611.3
2018-Sep-22 02:30N 53°38' E 009°32'510.9
2018-Sep-22 02:03N 53°42' E 009°29'112.4
2018-Sep-22 02:00N 53°43' E 009°29'612.3
2018-Sep-22 01:30N 53°48' E 009°23'613.6
2018-Sep-22 01:03N 53°52' E 009°15'114.9
2018-Sep-22 01:00N 53°53' E 009°14'611.1
2018-Sep-22 00:30N 53°52' E 009°05'613.9
2018-Sep-22 00:03N 53°51' E 008°55'117.0
2018-Sep-22 00:01N 53°51' E 008°53'612.5
2018-Sep-21 23:30N 53°52' E 008°43'613.7
2018-Sep-21 23:04N 53°57' E 008°37'117.0
2018-Sep-21 23:00N 53°58' E 008°36'816.9
2018-Sep-21 22:31N 53°59' E 008°22'612.4
2018-Sep-21 22:03N 54°00' E 008°12'114.8
2018-Sep-21 22:00N 53°60' E 008°11'610.2
2018-Sep-21 21:26N 53°59' E 008°01'2 6.0
2018-Sep-21 21:03N 53°59' E 007°58'0 6.7
2018-Sep-21 21:00N 53°59' E 007°57'86 8.7
2018-Sep-21 11:09N 53°36' E 005°36'1 8.4
2018-Sep-21 11:03N 53°36' E 005°35'2 8.5
2018-Sep-21 10:51N 53°36' E 005°32'3 8.4
2018-Sep-21 10:30N 53°35' E 005°28'4 8.3
2018-Sep-21 10:03N 53°34' E 005°22'0 8.1
2018-Sep-21 10:00N 53°34' E 005°21'4 8.2
2018-Sep-21 09:30N 53°32' E 005°14'4 8.4
2018-Sep-21 09:03N 53°31' E 005°08'1 8.1
2018-Sep-21 08:59N 53°31' E 005°07'4 8.4
2018-Sep-21 08:29N 53°30' E 005°01'4 8.3
2018-Sep-21 08:03N 53°28' E 004°55'1 8.4
2018-Sep-21 08:00N 53°28' E 004°54'4 8.4
2018-Sep-21 07:30N 53°26' E 004°48'4 9.2
2018-Sep-21 07:03N 53°24' E 004°42'0 9.5
2018-Sep-21 07:00N 53°24' E 004°42'10 8.2
2018-Sep-21 05:47N 53°15' E 004°34'310.8
2018-Sep-21 05:30N 53°12' E 004°32'3 7.7
2018-Sep-21 05:03N 53°09' E 004°30'0 8.2
2018-Sep-21 05:00N 53°09' E 004°29'4 7.9
2018-Sep-21 04:30N 53°05' E 004°26'4 7.8
2018-Sep-21 04:03N 53°02' E 004°23'0 8.1
2018-Sep-21 04:00N 53°02' E 004°22'4 7.9
2018-Sep-21 03:30N 52°59' E 004°19'4 7.8
2018-Sep-21 03:03N 52°55' E 004°17'0 8.0
2018-Sep-21 03:00N 52°55' E 004°17'4 8.2
2018-Sep-21 02:30N 52°51' E 004°14'4 8.3
2018-Sep-21 02:02N 52°48' E 004°10'0 7.8
2018-Sep-21 02:00N 52°48' E 004°10'4 8.0
2018-Sep-21 01:30N 52°45' E 004°06'4 7.6
2018-Sep-21 01:01N 52°41' E 004°06'0 7.7
2018-Sep-21 01:00N 52°41' E 004°06'4 7.4
2018-Sep-21 00:29N 52°37' E 004°06'3 7.7
2018-Sep-21 00:03N 52°34' E 004°07'0 7.3
2018-Sep-21 00:00N 52°34' E 004°07'4 7.9
2018-Sep-20 23:30N 52°31' E 004°13'3 7.5
2018-Sep-20 23:03N 52°30' E 004°18'0 7.4
2018-Sep-20 23:00N 52°30' E 004°18'4 7.6
2018-Sep-20 22:30N 52°29' E 004°25'510.8
2018-Sep-20 22:03N 52°28' E 004°32'112.7
2018-Sep-20 22:00N 52°28' E 004°33'1 1.2
2018-Sep-20 21:29N 52°28' E 004°34'0 0.0
2018-Sep-20 21:02N 52°28' E 004°34'0 0.0
2018-Sep-20 20:59N 52°28' E 004°34'0 0.0
2018-Sep-20 20:29N 52°28' E 004°34'0 0.0
2018-Sep-20 20:02N 52°28' E 004°34'0 0.0
2018-Sep-20 20:00N 52°28' E 004°34'0 0.0
2018-Sep-20 19:28N 52°28' E 004°34'0 0.0
2018-Sep-20 19:01N 52°28' E 004°34'0 0.0
2018-Sep-20 18:58N 52°28' E 004°34'0 0.0
2018-Sep-20 18:28N 52°28' E 004°34'0 0.0
2018-Sep-20 18:01N 52°28' E 004°34'0 0.0
2018-Sep-20 17:55N 52°28' E 004°34'0 0.0
2018-Sep-20 17:19N 52°28' E 004°34'0 0.0
2018-Sep-20 17:01N 52°28' E 004°34'0 0.0
2018-Sep-20 16:58N 52°28' E 004°34'0 0.0
2018-Sep-20 16:28N 52°28' E 004°34'0 0.0
2018-Sep-20 16:01N 52°28' E 004°34'0 0.0
2018-Sep-20 15:59N 52°28' E 004°34'0 0.0
2018-Sep-20 15:28N 52°28' E 004°34'0 0.0
2018-Sep-20 15:01N 52°28' E 004°34'0 0.1
2018-Sep-20 14:58N 52°28' E 004°34'0 0.0
2018-Sep-20 14:30N 52°28' E 004°34'0 0.0
2018-Sep-20 14:00N 52°28' E 004°34'0 0.0
2018-Sep-20 13:29N 52°28' E 004°34'0 0.0
2018-Sep-20 13:02N 52°28' E 004°34'0 0.0
2018-Sep-20 12:56N 52°28' E 004°34'0 0.0
2018-Sep-20 12:29N 52°28' E 004°34'0 0.0
2018-Sep-20 12:02N 52°28' E 004°34'0 0.0
2018-Sep-20 11:59N 52°28' E 004°34'0 0.0
2018-Sep-20 11:29N 52°28' E 004°34'0 0.0
2018-Sep-20 11:01N 52°28' E 004°34'0 0.0
2018-Sep-20 10:58N 52°28' E 004°34'0 0.0
2018-Sep-20 10:30N 52°28' E 004°34'0 0.0
2018-Sep-20 10:03N 52°28' E 004°34'0 0.0
2018-Sep-20 10:00N 52°28' E 004°34'0 0.0
2018-Sep-20 09:29N 52°28' E 004°34'0 0.0
2018-Sep-20 09:01N 52°28' E 004°34'0 0.0
2018-Sep-20 08:58N 52°28' E 004°34'0 0.0
2018-Sep-20 08:28N 52°28' E 004°34'0 0.0
2018-Sep-20 08:03N 52°28' E 004°34'0 0.0
2018-Sep-20 08:00N 52°28' E 004°34'0 0.0
2018-Sep-20 07:29N 52°28' E 004°34'0 0.0
2018-Sep-20 07:02N 52°28' E 004°34'0 0.0
2018-Sep-20 06:59N 52°28' E 004°34'0 0.0
2018-Sep-20 06:29N 52°28' E 004°34'0 0.0
2018-Sep-20 06:01N 52°28' E 004°34'0 0.0
2018-Sep-20 05:58N 52°28' E 004°34'1 1.1
2018-Sep-20 05:30N 52°28' E 004°33'613.8
2018-Sep-20 05:03N 52°29' E 004°23'116.1
2018-Sep-20 05:00N 52°29' E 004°22'714.1
2018-Sep-20 04:30N 52°29' E 004°10'818.2
2018-Sep-20 04:04N 52°27' E 003°58'118.3
2018-Sep-20 04:00N 52°26' E 003°56'918.4
2018-Sep-20 03:30N 52°22' E 003°43'818.5
2018-Sep-20 03:04N 52°18' E 003°31'119.0
2018-Sep-20 03:00N 52°17' E 003°30'918.7
2018-Sep-20 02:30N 52°12' E 003°17'818.7
2018-Sep-20 02:03N 52°07' E 003°06'119.0
2018-Sep-20 02:00N 52°07' E 003°05'1019.0
2018-Sep-20 01:29N 51°59' E 002°54'919.1
2018-Sep-20 01:02N 51°53' E 002°44'219.4
2018-Sep-20 00:55N 51°52' E 002°42'819.4
2018-Sep-20 00:30N 51°46' E 002°33'919.6
2018-Sep-20 00:03N 51°39' E 002°24'119.0
2018-Sep-20 00:00N 51°38' E 002°23'1019.7
2018-Sep-19 23:30N 51°30' E 002°13'920.9
2018-Sep-19 23:03N 51°24' E 002°03'121.5
2018-Sep-19 23:00N 51°23' E 002°02'1121.9
2018-Sep-19 22:30N 51°14' E 001°51'1022.1
2018-Sep-19 22:03N 51°07' E 001°41'122.8
2018-Sep-19 22:00N 51°06' E 001°40'1122.7
2018-Sep-19 21:31N 50°57' E 001°29'1022.4
2018-Sep-19 21:03N 50°47' E 001°24'122.4
2018-Sep-19 21:00N 50°46' E 001°24'1121.0
2018-Sep-19 20:31N 50°38' E 001°13'1021.3
2018-Sep-19 20:03N 50°32' E 001°01'121.1
2018-Sep-19 20:01N 50°31' E 001°00'1121.0
2018-Sep-19 19:30N 50°28' E 000°45'1021.1
2018-Sep-19 19:03N 50°25' E 000°30'121.5
2018-Sep-19 19:00N 50°25' E 000°28'1021.2
2018-Sep-19 18:30N 50°22' E 000°13'1021.3
2018-Sep-19 18:03N 50°19' W 000°02'121.6
2018-Sep-19 18:00N 50°19' W 000°04'1121.5
2018-Sep-19 17:30N 50°17' W 000°20'1021.7
2018-Sep-19 17:03N 50°15' W 000°35'121.8
2018-Sep-19 17:00N 50°14' W 000°37'1122.1
2018-Sep-19 16:30N 50°11' W 000°53'1022.6
2018-Sep-19 16:03N 50°08' W 001°08'122.0
2018-Sep-19 16:00N 50°08' W 001°10'1122.5
2018-Sep-19 15:30N 50°05' W 001°27'1022.5
2018-Sep-19 15:03N 50°02' W 001°42'122.6
2018-Sep-19 15:00N 50°02' W 001°44'1122.3
2018-Sep-19 14:30N 49°59' W 002°01'2921.6
2018-Sep-19 13:11N 49°51' W 002°43'321.1
2018-Sep-19 13:03N 49°50' W 002°47'120.7
2018-Sep-19 13:00N 49°50' W 002°49'1221.0
2018-Sep-19 12:26N 49°45' W 003°05'820.9
2018-Sep-19 12:03N 49°41' W 003°16'220.6
2018-Sep-19 11:58N 49°40' W 003°18'8520.6
2018-Sep-19 07:50N 48°55' W 005°10'720.5
2018-Sep-19 07:30N 48°52' W 005°19'920.5
2018-Sep-19 07:03N 48°47' W 005°30'120.6
2018-Sep-19 07:00N 48°46' W 005°32'2518.2
2018-Sep-19 05:38N 48°22' W 005°36'3620.0
2018-Sep-19 03:50N 47°50' W 005°10'719.7
2018-Sep-19 03:30N 47°45' W 005°03'8819.3
2018-Sep-18 22:57N 46°43' W 003°32'1519.1
2018-Sep-18 22:09N 46°32' W 003°16'6219.3
2018-Sep-18 18:55N 45°52' W 002°07'50 3.5
2018-Sep-18 04:53N 45°32' W 001°02'4 8.6
2018-Sep-18 04:28N 45°36' W 001°04'716.0
2018-Sep-18 04:03N 45°39' W 001°12'116.5
2018-Sep-18 04:00N 45°40' W 001°13'816.5
2018-Sep-18 03:30N 45°36' W 001°23'511.5
2018-Sep-18 03:03N 45°33' W 001°29'111.5
2018-Sep-18 03:00N 45°32' W 001°30'611.8
2018-Sep-18 02:30N 45°27' W 001°34'512.0
2018-Sep-18 02:03N 45°22' W 001°37'111.9
2018-Sep-18 02:00N 45°22' W 001°38'611.9
2018-Sep-18 01:30N 45°16' W 001°42'512.0
2018-Sep-18 01:03N 45°12' W 001°45'112.3
2018-Sep-18 01:00N 45°11' W 001°46'612.8
2018-Sep-18 00:30N 45°05' W 001°50'613.1
2018-Sep-18 00:03N 45°00' W 001°54'113.1
2018-Sep-18 00:00N 44°60' W 001°54'612.4
2018-Sep-17 23:30N 44°54' W 001°59'612.8
2018-Sep-17 23:03N 44°49' W 002°02'113.3
2018-Sep-17 23:00N 44°49' W 002°03'613.0
2018-Sep-17 22:30N 44°43' W 002°07'613.1
2018-Sep-17 22:03N 44°37' W 002°11'113.0
2018-Sep-17 22:00N 44°37' W 002°11'714.1
2018-Sep-17 21:31N 44°31' W 002°16'714.7
2018-Sep-17 21:04N 44°25' W 002°21'114.8
2018-Sep-17 21:00N 44°24' W 002°21'714.8
2018-Sep-17 20:30N 44°18' W 002°26'714.9
2018-Sep-17 20:03N 44°12' W 002°30'115.0
2018-Sep-17 20:01N 44°11' W 002°31'714.8
2018-Sep-17 19:30N 44°05' W 002°36'714.9
2018-Sep-17 19:03N 43°59' W 002°40'114.7
2018-Sep-17 19:00N 43°58' W 002°41'714.9
2018-Sep-17 18:30N 43°52' W 002°46'714.8
2018-Sep-17 18:03N 43°46' W 002°50'114.4
2018-Sep-17 18:01N 43°45' W 002°50'713.9
2018-Sep-17 17:28N 43°39' W 002°55'613.6
2018-Sep-17 17:02N 43°33' W 002°59'013.7
2018-Sep-17 17:00N 43°33' W 002°59'713.9
2018-Sep-17 16:30N 43°27' W 003°04'612.4
2018-Sep-17 16:04N 43°22' W 003°02'110.2
2018-Sep-17 16:01N 43°21' W 003°02'1 1.4
2018-Sep-17 15:28N 43°20' W 003°02'0 0.0
2018-Sep-17 15:01N 43°20' W 003°02'0 0.0
2018-Sep-17 14:58N 43°20' W 003°02'0 0.0
2018-Sep-17 14:28N 43°20' W 003°02'0 0.0
2018-Sep-17 13:58N 43°20' W 003°02'0 0.0
2018-Sep-17 13:28N 43°20' W 003°02'0 0.0
2018-Sep-17 13:00N 43°20' W 003°02'0 0.0
2018-Sep-17 12:26N 43°20' W 003°02'0 0.0
2018-Sep-17 11:59N 43°20' W 003°02'0 0.0
2018-Sep-17 11:26N 43°20' W 003°02'0 0.0
2018-Sep-17 11:02N 43°20' W 003°02'0 0.0
2018-Sep-17 10:59N 43°20' W 003°02'0 0.0
2018-Sep-17 10:30N 43°20' W 003°02'0 0.0
2018-Sep-17 09:57N 43°20' W 003°02'0 0.0
2018-Sep-17 09:13N 43°20' W 003°02'0 0.0
2018-Sep-17 08:46N 43°20' W 003°02'0 0.0
2018-Sep-17 08:28N 43°20' W 003°02'0 0.0
2018-Sep-17 07:58N 43°20' W 003°02'0 0.0
2018-Sep-17 07:15N 43°20' W 003°02'0 0.0
2018-Sep-17 07:03N 43°20' W 003°02'0 0.0
2018-Sep-17 06:57N 43°20' W 003°02'0 0.0
2018-Sep-17 06:30N 43°20' W 003°02'0 0.0
2018-Sep-17 06:03N 43°20' W 003°02'0 0.6
2018-Sep-17 06:00N 43°20' W 003°02'3 6.0
2018-Sep-17 05:30N 43°23' W 003°04'714.4
2018-Sep-17 05:03N 43°28' W 003°10'116.7
2018-Sep-17 05:00N 43°29' W 003°10'916.7
2018-Sep-17 04:29N 43°33' W 003°21'717.3
2018-Sep-17 04:03N 43°37' W 003°30'117.7
2018-Sep-17 04:00N 43°37' W 003°31'917.5
2018-Sep-17 03:30N 43°40' W 003°42'817.2
2018-Sep-17 03:02N 43°41' W 003°53'117.2
2018-Sep-17 03:00N 43°41' W 003°54'917.4
2018-Sep-17 02:30N 43°42' W 004°06'817.7
2018-Sep-17 02:03N 43°43' W 004°17'118.1
2018-Sep-17 02:00N 43°43' W 004°18'917.8
2018-Sep-17 01:28N 43°43' W 004°31'817.7
2018-Sep-17 01:03N 43°44' W 004°42'617.8
2018-Sep-17 00:43N 43°44' W 004°50'417.9
2018-Sep-17 00:29N 43°45' W 004°55'14817.4
2018-Sep-16 16:00N 43°24' W 008°18'30110.3 010 / 101018.510.8 19.015.917.0
2018-Sep-15 10:48N 48°12' W 006°12'2018.6
2018-Sep-15 09:43N 48°31' W 006°01'7 9.0
2018-Sep-15 09:00N 48°36' W 005°54'995.2 190 / 101026.527.0 16.012.618.0
2018-Sep-15 08:54N 48°45' W 005°52'918.1
2018-Sep-15 08:23N 48°53' W 005°44'1017.2
2018-Sep-15 07:49N 48°58' W 005°32'616.7
2018-Sep-15 07:26N 49°02' W 005°24'1016.7
2018-Sep-15 06:49N 49°07' W 005°10'7919.6
2018-Sep-15 02:47N 49°47' W 003°26'621.5
2018-Sep-15 02:30N 49°50' W 003°18'1220.9
2018-Sep-15 01:56N 49°57' W 003°02'920.1
2018-Sep-15 01:29N 50°00' W 002°50'919.5
2018-Sep-15 01:03N 50°03' W 002°37'119.0
2018-Sep-15 00:59N 50°04' W 002°35'1716.5
2018-Sep-14 23:57N 50°04' W 002°09'715.5
2018-Sep-14 23:30N 50°01' W 001°59'716.7
2018-Sep-14 23:04N 49°60' W 001°47'116.4
2018-Sep-14 23:00N 49°60' W 001°46'816.6
2018-Sep-14 22:30N 49°58' W 001°34'816.6
2018-Sep-14 22:03N 49°56' W 001°22'116.6
2018-Sep-14 22:01N 49°56' W 001°21'  
Track history (hours):
 
Tides and Currents Weather Stations Pressure Air Temp Water Temp Dewpoint Dewpoint Depression Visibility Wind Speed Wind Dir Waves Ship Positions

MSC Magnifica

Last reported at 2018-Sep-24 21:30 UTC. Time now 2018-Sep-24 21:51 UTC.
Position N 50°34' W 000°52'.

Length 294 m; draft 7.9 m.

Type: Passenger vessel. MMSI: 352594000.

Date/timePositionNaut miles runAvg speedWind from/ knotsBaromVisibWave heightAir tempDewpointWater temp
2018-Sep-24 21:30N 50°34' W 000°52'613.9
2018-Sep-24 21:03N 50°39' W 000°56'113.8
2018-Sep-24 21:00N 50°40' W 000°56'510.7
2018-Sep-24 20:30N 50°44' W 001°03'818.4
2018-Sep-24 20:03N 50°46' W 001°15'120.3
2018-Sep-24 20:00N 50°46' W 001°17'5 9.8
2018-Sep-24 19:30N 50°51' W 001°20'4 9.0
2018-Sep-24 19:03N 50°54' W 001°25'0 5.6
2018-Sep-24 19:00N 50°54' W 001°25'0 0.3
2018-Sep-24 18:27N 50°54' W 001°25'0 0.0
2018-Sep-24 18:03N 50°54' W 001°25'0 0.0
2018-Sep-24 17:51N 50°54' W 001°25'0 0.0
2018-Sep-24 17:11N 50°54' W 001°25'0 0.0
2018-Sep-24 08:38N 50°54' W 001°25'0 0.0
2018-Sep-24 08:17N 50°54' W 001°25'0 0.0
2018-Sep-24 08:02N 50°54' W 001°25'0 0.0
2018-Sep-24 07:44N 50°54' W 001°25'0 0.0
2018-Sep-24 07:20N 50°54' W 001°25'0 0.0
2018-Sep-24 06:56N 50°54' W 001°25'0 0.0
2018-Sep-24 06:30N 50°54' W 001°25'2 5.5
2018-Sep-24 06:03N 50°52' W 001°23'114.4
2018-Sep-24 06:00N 50°52' W 001°22'510.5
2018-Sep-24 05:30N 50°47' W 001°19'716.6
2018-Sep-24 05:03N 50°45' W 001°07'119.3
2018-Sep-24 05:00N 50°45' W 001°06'917.7
2018-Sep-24 04:30N 50°40' W 000°55'2 4.4
2018-Sep-24 04:03N 50°38' W 000°53'0 6.0
2018-Sep-24 04:00N 50°38' W 000°52'4 8.8
2018-Sep-24 03:30N 50°38' W 000°45'511.5
2018-Sep-24 03:03N 50°36' W 000°38'111.4
2018-Sep-24 03:00N 50°36' W 000°37'611.8
2018-Sep-24 02:30N 50°35' W 000°28'2311.8
2018-Sep-24 00:34N 50°32' E 000°08'412.8
2018-Sep-24 00:16N 50°33' E 000°14'313.0
2018-Sep-24 00:03N 50°34' E 000°18'112.8
2018-Sep-24 00:00N 50°34' E 000°19'612.7
2018-Sep-23 23:30N 50°36' E 000°29'613.1
2018-Sep-23 23:03N 50°38' E 000°37'113.2
2018-Sep-23 23:00N 50°38' E 000°38'713.2
2018-Sep-23 22:31N 50°42' E 000°47'613.4
2018-Sep-23 22:04N 50°45' E 000°54'113.1
2018-Sep-23 22:00N 50°46' E 000°55'713.1
2018-Sep-23 21:30N 50°49' E 001°04'612.9
2018-Sep-23 21:03N 50°54' E 001°10'112.9
2018-Sep-23 21:00N 50°54' E 001°11'612.9
2018-Sep-23 20:30N 50°59' E 001°18'612.6
2018-Sep-23 20:03N 51°03' E 001°24'113.4
2018-Sep-23 20:00N 51°03' E 001°25'713.6
2018-Sep-23 19:31N 51°07' E 001°34'614.3
2018-Sep-23 19:04N 51°11' E 001°42'114.8
2018-Sep-23 19:01N 51°12' E 001°42'816.1
2018-Sep-23 18:31N 51°18' E 001°50'715.9
2018-Sep-23 18:04N 51°25' E 001°55'115.8
2018-Sep-23 18:00N 51°25' E 001°56'815.4
2018-Sep-23 17:30N 51°31' E 002°04'714.9
2018-Sep-23 17:03N 51°36' E 002°11'114.9
2018-Sep-23 17:00N 51°37' E 002°12'814.5
2018-Sep-23 16:29N 51°42' E 002°21'614.0
2018-Sep-23 16:03N 51°47' E 002°27'114.2
2018-Sep-23 15:59N 51°48' E 002°28'3414.9
2018-Sep-23 13:43N 52°14' E 003°03'416.6
2018-Sep-23 13:29N 52°17' E 003°06'716.7
2018-Sep-23 13:03N 52°23' E 003°13'117.1
2018-Sep-23 13:00N 52°24' E 003°14'917.1
2018-Sep-23 12:29N 52°31' E 003°22'817.5
2018-Sep-23 12:02N 52°37' E 003°31'117.9
2018-Sep-23 11:59N 52°37' E 003°32'1018.1
2018-Sep-23 11:28N 52°45' E 003°41'2218.6
2018-Sep-23 10:16N 53°01' E 004°06'518.8
2018-Sep-23 10:01N 53°04' E 004°12'118.8
2018-Sep-23 09:57N 53°05' E 004°14'818.9
2018-Sep-23 09:30N 53°11' E 004°24'818.8
2018-Sep-23 09:03N 53°18' E 004°31'119.0
2018-Sep-23 09:00N 53°19' E 004°32'918.4
2018-Sep-23 08:30N 53°27' E 004°38'818.2
2018-Sep-23 08:03N 53°32' E 004°50'117.9
2018-Sep-23 08:00N 53°32' E 004°51'917.5
2018-Sep-23 07:30N 53°36' E 005°05'817.0
2018-Sep-23 07:03N 53°38' E 005°17'116.8
2018-Sep-23 07:00N 53°39' E 005°18'816.7
2018-Sep-23 06:30N 53°41' E 005°31'816.5
2018-Sep-23 06:03N 53°43' E 005°44'116.5
2018-Sep-23 06:00N 53°43' E 005°45'816.6
2018-Sep-23 05:30N 53°46' E 005°59'716.7
2018-Sep-23 05:03N 53°48' E 006°11'116.9
2018-Sep-23 04:59N 53°48' E 006°12'817.0
2018-Sep-23 04:30N 53°51' E 006°26'1017.6
2018-Sep-23 03:55N 53°54' E 006°43'5218.2
2018-Sep-23 01:04N 54°00' E 008°10'118.5
2018-Sep-23 01:00N 54°00' E 008°12'815.8
2018-Sep-23 00:30N 53°59' E 008°25'817.9
2018-Sep-23 00:03N 53°57' E 008°39'117.3
2018-Sep-23 00:00N 53°56' E 008°39'714.5
2018-Sep-22 23:30N 53°51' E 008°47'613.0
2018-Sep-22 23:04N 53°51' E 008°57'114.4
2018-Sep-22 23:00N 53°51' E 008°58'611.8
2018-Sep-22 22:31N 53°53' E 009°08'510.6
2018-Sep-22 22:03N 53°52' E 009°16'111.8
2018-Sep-22 22:00N 53°52' E 009°17'611.2
2018-Sep-22 21:30N 53°48' E 009°23'511.1
2018-Sep-22 21:04N 53°44' E 009°27'111.0
2018-Sep-22 21:00N 53°43' E 009°28'612.1
2018-Sep-22 20:30N 53°38' E 009°32'613.7
2018-Sep-22 20:03N 53°34' E 009°40'112.6
2018-Sep-22 20:00N 53°34' E 009°41'612.4
2018-Sep-22 19:31N 53°33' E 009°52'3 6.9
2018-Sep-22 19:04N 53°33' E 009°57'0 1.9
2018-Sep-22 19:01N 53°32' E 009°57'0 0.5
2018-Sep-22 18:28N 53°33' E 009°56'0 0.0
2018-Sep-22 18:01N 53°33' E 009°56'0 0.0
2018-Sep-22 17:58N 53°33' E 009°56'0 0.0
2018-Sep-22 17:28N 53°33' E 009°56'0 0.0
2018-Sep-22 17:01N 53°33' E 009°56'0 0.0
2018-Sep-22 16:58N 53°33' E 009°56'0 0.0
2018-Sep-22 16:28N 53°33' E 009°56'0 0.0
2018-Sep-22 16:03N 53°33' E 009°56'0 0.0
2018-Sep-22 16:00N 53°33' E 009°56'0 0.0
2018-Sep-22 15:30N 53°33' E 009°56'0 0.0
2018-Sep-22 15:02N 53°33' E 009°56'0 0.0
2018-Sep-22 14:59N 53°33' E 009°56'0 0.0
2018-Sep-22 14:29N 53°33' E 009°56'0 0.0
2018-Sep-22 13:59N 53°33' E 009°56'0 0.0
2018-Sep-22 13:29N 53°33' E 009°56'0 0.0
2018-Sep-22 13:02N 53°33' E 009°56'0 0.0
2018-Sep-22 12:59N 53°33' E 009°56'0 0.0
2018-Sep-22 12:29N 53°33' E 009°56'0 0.0
2018-Sep-22 12:02N 53°33' E 009°56'0 0.0
2018-Sep-22 11:59N 53°33' E 009°56'0 0.0
2018-Sep-22 11:29N 53°33' E 009°56'0 0.0
2018-Sep-22 11:02N 53°33' E 009°56'0 0.0
2018-Sep-22 10:59N 53°33' E 009°56'0 0.0
2018-Sep-22 10:28N 53°33' E 009°56'0 0.0
2018-Sep-22 10:04N 53°33' E 009°56'0 0.0
2018-Sep-22 09:57N 53°33' E 009°56'0 0.0
2018-Sep-22 09:28N 53°33' E 009°56'0 0.0
2018-Sep-22 09:01N 53°33' E 009°56'0 0.0
2018-Sep-22 08:58N 53°33' E 009°56'0 0.0
2018-Sep-22 08:25N 53°33' E 009°56'0 0.0
2018-Sep-22 08:01N 53°33' E 009°56'0 0.0
2018-Sep-22 07:58N 53°33' E 009°56'0 0.0
2018-Sep-22 07:28N 53°33' E 009°56'0 0.0
2018-Sep-22 07:01N 53°33' E 009°56'0 0.0
2018-Sep-22 06:58N 53°33' E 009°56'0 0.0
2018-Sep-22 06:30N 53°33' E 009°56'0 0.0
2018-Sep-22 06:02N 53°33' E 009°56'0 0.0
2018-Sep-22 05:59N 53°33' E 009°56'0 0.0
2018-Sep-22 05:29N 53°33' E 009°56'0 0.0
2018-Sep-22 05:02N 53°33' E 009°56'0 0.0
2018-Sep-22 04:59N 53°33' E 009°56'0 0.0
2018-Sep-22 04:29N 53°33' E 009°56'0 1.1
2018-Sep-22 04:03N 53°33' E 009°56'0 7.5
2018-Sep-22 04:00N 53°33' E 009°55'4 7.9
2018-Sep-22 03:30N 53°33' E 009°48'511.0
2018-Sep-22 03:03N 53°34' E 009°40'111.4
2018-Sep-22 03:00N 53°34' E 009°39'611.3
2018-Sep-22 02:30N 53°38' E 009°32'510.9
2018-Sep-22 02:03N 53°42' E 009°29'112.4
2018-Sep-22 02:00N 53°43' E 009°29'612.3
2018-Sep-22 01:30N 53°48' E 009°23'613.6
2018-Sep-22 01:03N 53°52' E 009°15'114.9
2018-Sep-22 01:00N 53°53' E 009°14'611.1
2018-Sep-22 00:30N 53°52' E 009°05'613.9
2018-Sep-22 00:03N 53°51' E 008°55'117.0
2018-Sep-22 00:01N 53°51' E 008°53'612.5
2018-Sep-21 23:30N 53°52' E 008°43'613.7
2018-Sep-21 23:04N 53°57' E 008°37'117.0
2018-Sep-21 23:00N 53°58' E 008°36'816.9
2018-Sep-21 22:31N 53°59' E 008°22'612.4
2018-Sep-21 22:03N 54°00' E 008°12'114.8
2018-Sep-21 22:00N 53°60' E 008°11'610.2
2018-Sep-21 21:26N 53°59' E 008°01'2 6.0
2018-Sep-21 21:03N 53°59' E 007°58'0 6.7
2018-Sep-21 21:00N 53°59' E 007°57'86 8.7
2018-Sep-21 11:09N 53°36' E 005°36'1 8.4
2018-Sep-21 11:03N 53°36' E 005°35'2 8.5
2018-Sep-21 10:51N 53°36' E 005°32'3 8.4
2018-Sep-21 10:30N 53°35' E 005°28'4 8.3
2018-Sep-21 10:03N 53°34' E 005°22'0 8.1
2018-Sep-21 10:00N 53°34' E 005°21'4 8.2
2018-Sep-21 09:30N 53°32' E 005°14'4 8.4
2018-Sep-21 09:03N 53°31' E 005°08'1 8.1
2018-Sep-21 08:59N 53°31' E 005°07'4 8.4
2018-Sep-21 08:29N 53°30' E 005°01'4 8.3
2018-Sep-21 08:03N 53°28' E 004°55'1 8.4
2018-Sep-21 08:00N 53°28' E 004°54'4 8.4
2018-Sep-21 07:30N 53°26' E 004°48'4 9.2
2018-Sep-21 07:03N 53°24' E 004°42'0 9.5
2018-Sep-21 07:00N 53°24' E 004°42'10 8.2
2018-Sep-21 05:47N 53°15' E 004°34'310.8
2018-Sep-21 05:30N 53°12' E 004°32'3 7.7
2018-Sep-21 05:03N 53°09' E 004°30'0 8.2
2018-Sep-21 05:00N 53°09' E 004°29'4 7.9
2018-Sep-21 04:30N 53°05' E 004°26'4 7.8
2018-Sep-21 04:03N 53°02' E 004°23'0 8.1
2018-Sep-21 04:00N 53°02' E 004°22'4 7.9
2018-Sep-21 03:30N 52°59' E 004°19'4 7.8
2018-Sep-21 03:03N 52°55' E 004°17'0 8.0
2018-Sep-21 03:00N 52°55' E 004°17'4 8.2
2018-Sep-21 02:30N 52°51' E 004°14'4 8.3
2018-Sep-21 02:02N 52°48' E 004°10'0 7.8
2018-Sep-21 02:00N 52°48' E 004°10'4 8.0
2018-Sep-21 01:30N 52°45' E 004°06'4 7.6
2018-Sep-21 01:01N 52°41' E 004°06'0 7.7
2018-Sep-21 01:00N 52°41' E 004°06'4 7.4
2018-Sep-21 00:29N 52°37' E 004°06'3 7.7
2018-Sep-21 00:03N 52°34' E 004°07'0 7.3
2018-Sep-21 00:00N 52°34' E 004°07'4 7.9
2018-Sep-20 23:30N 52°31' E 004°13'3 7.5
2018-Sep-20 23:03N 52°30' E 004°18'0 7.4
2018-Sep-20 23:00N 52°30' E 004°18'4 7.6
2018-Sep-20 22:30N 52°29' E 004°25'510.8
2018-Sep-20 22:03N 52°28' E 004°32'112.7
2018-Sep-20 22:00N 52°28' E 004°33'1 1.2
2018-Sep-20 21:29N 52°28' E 004°34'0 0.0
2018-Sep-20 21:02N 52°28' E 004°34'0 0.0
2018-Sep-20 20:59N 52°28' E 004°34'0 0.0
2018-Sep-20 20:29N 52°28' E 004°34'0 0.0
2018-Sep-20 20:02N 52°28' E 004°34'0 0.0
2018-Sep-20 20:00N 52°28' E 004°34'0 0.0
2018-Sep-20 19:28N 52°28' E 004°34'0 0.0
2018-Sep-20 19:01N 52°28' E 004°34'0 0.0
2018-Sep-20 18:58N 52°28' E 004°34'0 0.0
2018-Sep-20 18:28N 52°28' E 004°34'0 0.0
2018-Sep-20 18:01N 52°28' E 004°34'0 0.0
2018-Sep-20 17:55N 52°28' E 004°34'0 0.0
2018-Sep-20 17:19N 52°28' E 004°34'0 0.0
2018-Sep-20 17:01N 52°28' E 004°34'0 0.0
2018-Sep-20 16:58N 52°28' E 004°34'0 0.0
2018-Sep-20 16:28N 52°28' E 004°34'0 0.0
2018-Sep-20 16:01N 52°28' E 004°34'0 0.0
2018-Sep-20 15:59N 52°28' E 004°34'0 0.0
2018-Sep-20 15:28N 52°28' E 004°34'0 0.0
2018-Sep-20 15:01N 52°28' E 004°34'0 0.1
2018-Sep-20 14:58N 52°28' E 004°34'0 0.0
2018-Sep-20 14:30N 52°28' E 004°34'0 0.0
2018-Sep-20 14:00N 52°28' E 004°34'0 0.0
2018-Sep-20 13:29N 52°28' E 004°34'0 0.0
2018-Sep-20 13:02N 52°28' E 004°34'0 0.0
2018-Sep-20 12:56N 52°28' E 004°34'0 0.0
2018-Sep-20 12:29N 52°28' E 004°34'0 0.0
2018-Sep-20 12:02N 52°28' E 004°34'0 0.0
2018-Sep-20 11:59N 52°28' E 004°34'0 0.0
2018-Sep-20 11:29N 52°28' E 004°34'0 0.0
2018-Sep-20 11:01N 52°28' E 004°34'0 0.0
2018-Sep-20 10:58N 52°28' E 004°34'0 0.0
2018-Sep-20 10:30N 52°28' E 004°34'0 0.0
2018-Sep-20 10:03N 52°28' E 004°34'0 0.0
2018-Sep-20 10:00N 52°28' E 004°34'0 0.0
2018-Sep-20 09:29N 52°28' E 004°34'0 0.0
2018-Sep-20 09:01N 52°28' E 004°34'0 0.0
2018-Sep-20 08:58N 52°28' E 004°34'0 0.0
2018-Sep-20 08:28N 52°28' E 004°34'0 0.0
2018-Sep-20 08:03N 52°28' E 004°34'0 0.0
2018-Sep-20 08:00N 52°28' E 004°34'0 0.0
2018-Sep-20 07:29N 52°28' E 004°34'0 0.0
2018-Sep-20 07:02N 52°28' E 004°34'0 0.0
2018-Sep-20 06:59N 52°28' E 004°34'0 0.0
2018-Sep-20 06:29N 52°28' E 004°34'0 0.0
2018-Sep-20 06:01N 52°28' E 004°34'0 0.0
2018-Sep-20 05:58N 52°28' E 004°34'1 1.1
2018-Sep-20 05:30N 52°28' E 004°33'613.8
2018-Sep-20 05:03N 52°29' E 004°23'116.1
2018-Sep-20 05:00N 52°29' E 004°22'714.1
2018-Sep-20 04:30N 52°29' E 004°10'818.2
2018-Sep-20 04:04N 52°27' E 003°58'118.3
2018-Sep-20 04:00N 52°26' E 003°56'918.4
2018-Sep-20 03:30N 52°22' E 003°43'818.5
2018-Sep-20 03:04N 52°18' E 003°31'119.0
2018-Sep-20 03:00N 52°17' E 003°30'918.7
2018-Sep-20 02:30N 52°12' E 003°17'818.7
2018-Sep-20 02:03N 52°07' E 003°06'119.0
2018-Sep-20 02:00N 52°07' E 003°05'1019.0
2018-Sep-20 01:29N 51°59' E 002°54'919.1
2018-Sep-20 01:02N 51°53' E 002°44'219.4
2018-Sep-20 00:55N 51°52' E 002°42'819.4
2018-Sep-20 00:30N 51°46' E 002°33'919.6
2018-Sep-20 00:03N 51°39' E 002°24'119.0
2018-Sep-20 00:00N 51°38' E 002°23'1019.7
2018-Sep-19 23:30N 51°30' E 002°13'920.9
2018-Sep-19 23:03N 51°24' E 002°03'121.5
2018-Sep-19 23:00N 51°23' E 002°02'1121.9
2018-Sep-19 22:30N 51°14' E 001°51'1022.1
2018-Sep-19 22:03N 51°07' E 001°41'122.8
2018-Sep-19 22:00N 51°06' E 001°40'1122.7
2018-Sep-19 21:31N 50°57' E 001°29'1022.4
2018-Sep-19 21:03N 50°47' E 001°24'122.4
2018-Sep-19 21:00N 50°46' E 001°24'1121.0
2018-Sep-19 20:31N 50°38' E 001°13'1021.3
2018-Sep-19 20:03N 50°32' E 001°01'121.1
2018-Sep-19 20:01N 50°31' E 001°00'1121.0
2018-Sep-19 19:30N 50°28' E 000°45'1021.1
2018-Sep-19 19:03N 50°25' E 000°30'121.5
2018-Sep-19 19:00N 50°25' E 000°28'1021.2
2018-Sep-19 18:30N 50°22' E 000°13'1021.3
2018-Sep-19 18:03N 50°19' W 000°02'121.6
2018-Sep-19 18:00N 50°19' W 000°04'1121.5
2018-Sep-19 17:30N 50°17' W 000°20'1021.7
2018-Sep-19 17:03N 50°15' W 000°35'121.8
2018-Sep-19 17:00N 50°14' W 000°37'1122.1
2018-Sep-19 16:30N 50°11' W 000°53'1022.6
2018-Sep-19 16:03N 50°08' W 001°08'122.0
2018-Sep-19 16:00N 50°08' W 001°10'1122.5
2018-Sep-19 15:30N 50°05' W 001°27'1022.5
2018-Sep-19 15:03N 50°02' W 001°42'122.6
2018-Sep-19 15:00N 50°02' W 001°44'1122.3
2018-Sep-19 14:30N 49°59' W 002°01'2921.6
2018-Sep-19 13:11N 49°51' W 002°43'321.1
2018-Sep-19 13:03N 49°50' W 002°47'120.7
2018-Sep-19 13:00N 49°50' W 002°49'1221.0
2018-Sep-19 12:26N 49°45' W 003°05'820.9
2018-Sep-19 12:03N 49°41' W 003°16'220.6
2018-Sep-19 11:58N 49°40' W 003°18'8520.6
2018-Sep-19 07:50N 48°55' W 005°10'720.5
2018-Sep-19 07:30N 48°52' W 005°19'920.5
2018-Sep-19 07:03N 48°47' W 005°30'120.6
2018-Sep-19 07:00N 48°46' W 005°32'2518.2
2018-Sep-19 05:38N 48°22' W 005°36'3620.0
2018-Sep-19 03:50N 47°50' W 005°10'719.7
2018-Sep-19 03:30N 47°45' W 005°03'8819.3
2018-Sep-18 22:57N 46°43' W 003°32'1519.1
2018-Sep-18 22:09N 46°32' W 003°16'6219.3
2018-Sep-18 18:55N 45°52' W 002°07'50 3.5
2018-Sep-18 04:53N 45°32' W 001°02'4 8.6
2018-Sep-18 04:28N 45°36' W 001°04'716.0
2018-Sep-18 04:03N 45°39' W 001°12'116.5
2018-Sep-18 04:00N 45°40' W 001°13'816.5
2018-Sep-18 03:30N 45°36' W 001°23'511.5
2018-Sep-18 03:03N 45°33' W 001°29'111.5
2018-Sep-18 03:00N 45°32' W 001°30'611.8
2018-Sep-18 02:30N 45°27' W 001°34'512.0
2018-Sep-18 02:03N 45°22' W 001°37'111.9
2018-Sep-18 02:00N 45°22' W 001°38'611.9
2018-Sep-18 01:30N 45°16' W 001°42'512.0
2018-Sep-18 01:03N 45°12' W 001°45'112.3
2018-Sep-18 01:00N 45°11' W 001°46'612.8
2018-Sep-18 00:30N 45°05' W 001°50'613.1
2018-Sep-18 00:03N 45°00' W 001°54'113.1
2018-Sep-18 00:00N 44°60' W 001°54'612.4
2018-Sep-17 23:30N 44°54' W 001°59'612.8
2018-Sep-17 23:03N 44°49' W 002°02'113.3
2018-Sep-17 23:00N 44°49' W 002°03'613.0
2018-Sep-17 22:30N 44°43' W 002°07'613.1
2018-Sep-17 22:03N 44°37' W 002°11'113.0
2018-Sep-17 22:00N 44°37' W 002°11'714.1
2018-Sep-17 21:31N 44°31' W 002°16'714.7
2018-Sep-17 21:04N 44°25' W 002°21'114.8
2018-Sep-17 21:00N 44°24' W 002°21'714.8
2018-Sep-17 20:30N 44°18' W 002°26'714.9
2018-Sep-17 20:03N 44°12' W 002°30'115.0
2018-Sep-17 20:01N 44°11' W 002°31'714.8
2018-Sep-17 19:30N 44°05' W 002°36'714.9
2018-Sep-17 19:03N 43°59' W 002°40'114.7
2018-Sep-17 19:00N 43°58' W 002°41'714.9
2018-Sep-17 18:30N 43°52' W 002°46'714.8
2018-Sep-17 18:03N 43°46' W 002°50'114.4
2018-Sep-17 18:01N 43°45' W 002°50'713.9
2018-Sep-17 17:28N 43°39' W 002°55'613.6
2018-Sep-17 17:02N 43°33' W 002°59'013.7
2018-Sep-17 17:00N 43°33' W 002°59'713.9
2018-Sep-17 16:30N 43°27' W 003°04'612.4
2018-Sep-17 16:04N 43°22' W 003°02'110.2
2018-Sep-17 16:01N 43°21' W 003°02'1 1.4
2018-Sep-17 15:28N 43°20' W 003°02'0 0.0
2018-Sep-17 15:01N 43°20' W 003°02'0 0.0
2018-Sep-17 14:58N 43°20' W 003°02'0 0.0
2018-Sep-17 14:28N 43°20' W 003°02'0 0.0
2018-Sep-17 13:58N 43°20' W 003°02'0 0.0
2018-Sep-17 13:28N 43°20' W 003°02'0 0.0
2018-Sep-17 13:00N 43°20' W 003°02'0 0.0
2018-Sep-17 12:26N 43°20' W 003°02'0 0.0
2018-Sep-17 11:59N 43°20' W 003°02'0 0.0
2018-Sep-17 11:26N 43°20' W 003°02'0 0.0
2018-Sep-17 11:02N 43°20' W 003°02'0 0.0
2018-Sep-17 10:59N 43°20' W 003°02'0 0.0
2018-Sep-17 10:30N 43°20' W 003°02'0 0.0
2018-Sep-17 09:57N 43°20' W 003°02'0 0.0
2018-Sep-17 09:13N 43°20' W 003°02'0 0.0
2018-Sep-17 08:46N 43°20' W 003°02'0 0.0
2018-Sep-17 08:28N 43°20' W 003°02'0 0.0
2018-Sep-17 07:58N 43°20' W 003°02'0 0.0
2018-Sep-17 07:15N 43°20' W 003°02'0 0.0
2018-Sep-17 07:03N 43°20' W 003°02'0 0.0
2018-Sep-17 06:57N 43°20' W 003°02'0 0.0
2018-Sep-17 06:30N 43°20' W 003°02'0 0.0
2018-Sep-17 06:03N 43°20' W 003°02'0 0.6
2018-Sep-17 06:00N 43°20' W 003°02'3 6.0
2018-Sep-17 05:30N 43°23' W 003°04'714.4
2018-Sep-17 05:03N 43°28' W 003°10'116.7
2018-Sep-17 05:00N 43°29' W 003°10'916.7
2018-Sep-17 04:29N 43°33' W 003°21'717.3
2018-Sep-17 04:03N 43°37' W 003°30'117.7
2018-Sep-17 04:00N 43°37' W 003°31'917.5
2018-Sep-17 03:30N 43°40' W 003°42'817.2
2018-Sep-17 03:02N 43°41' W 003°53'117.2
2018-Sep-17 03:00N 43°41' W 003°54'917.4
2018-Sep-17 02:30N 43°42' W 004°06'817.7
2018-Sep-17 02:03N 43°43' W 004°17'118.1
2018-Sep-17 02:00N 43°43' W 004°18'917.8
2018-Sep-17 01:28N 43°43' W 004°31'817.7
2018-Sep-17 01:03N 43°44' W 004°42'617.8
2018-Sep-17 00:43N 43°44' W 004°50'417.9
2018-Sep-17 00:29N 43°45' W 004°55'14817.4
2018-Sep-16 16:00N 43°24' W 008°18'30110.3 010 / 101018.510.8 19.015.917.0
2018-Sep-15 10:48N 48°12' W 006°12'2018.6
2018-Sep-15 09:43N 48°31' W 006°01'7 9.0
2018-Sep-15 09:00N 48°36' W 005°54'995.2 190 / 101026.527.0 16.012.618.0
2018-Sep-15 08:54N 48°45' W 005°52'918.1
2018-Sep-15 08:23N 48°53' W 005°44'1017.2
2018-Sep-15 07:49N 48°58' W 005°32'616.7
2018-Sep-15 07:26N 49°02' W 005°24'1016.7
2018-Sep-15 06:49N 49°07' W 005°10'7919.6
2018-Sep-15 02:47N 49°47' W 003°26'621.5
2018-Sep-15 02:30N 49°50' W 003°18'1220.9
2018-Sep-15 01:56N 49°57' W 003°02'920.1
2018-Sep-15 01:29N 50°00' W 002°50'919.5
2018-Sep-15 01:03N 50°03' W 002°37'119.0
2018-Sep-15 00:59N 50°04' W 002°35'1716.5
2018-Sep-14 23:57N 50°04' W 002°09'715.5
2018-Sep-14 23:30N 50°01' W 001°59'716.7
2018-Sep-14 23:04N 49°60' W 001°47'116.4
2018-Sep-14 23:00N 49°60' W 001°46'816.6
2018-Sep-14 22:30N 49°58' W 001°34'816.6
2018-Sep-14 22:03N 49°56' W 001°22'116.6
2018-Sep-14 22:01N 49°56' W 001°21'  

Dump ship's entire track history